createdAt,value
2022-09-13T00:17:19.435Z,2
2022-09-13T00:47:23.471Z,1
2022-09-13T01:17:25.404Z,2
2022-09-13T01:47:28.468Z,2
2022-09-13T02:17:29.508Z,2
2022-09-13T02:47:39.437Z,2
2022-09-13T03:17:43.761Z,2
2022-09-13T03:47:44.580Z,1
2022-09-13T04:17:51.908Z,1
2022-09-13T04:48:02.006Z,4
2022-09-13T05:18:05.918Z,12
2022-09-13T05:48:10.891Z,27
2022-09-13T06:18:15.923Z,33
2022-09-13T06:48:17.867Z,45
2022-09-13T07:18:23.871Z,173
2022-09-13T07:48:25.961Z,399
2022-09-13T08:18:26.953Z,412
2022-09-13T08:48:36.087Z,527
2022-09-13T09:18:38.078Z,619
2022-09-13T09:48:39.128Z,648
2022-09-13T10:18:46.395Z,303
2022-09-13T10:48:49.000Z,736.0
2022-09-13T11:18:51.651Z,362
2022-09-13T11:49:02.555Z,466
2022-09-13T12:19:12.000Z,301.0
2022-09-13T12:49:14.000Z,797.0
2022-09-13T13:19:24.000Z,303.0
2022-09-13T13:49:29.642Z,325
2022-09-13T14:19:30.000Z,214.0
2022-09-13T14:49:34.695Z,245
2022-09-13T15:19:35.000Z,196.0
2022-09-13T15:49:36.134Z,98
2022-09-13T16:19:37.000Z,48.0
2022-09-13T16:49:47.000Z,43.0
2022-09-13T17:19:47.772Z,14
2022-09-13T17:49:48.870Z,0
2022-09-13T18:19:57.731Z,1
2022-09-13T18:50:02.739Z,0
2022-09-13T19:20:05.000Z,1.0
2022-09-13T19:50:16.966Z,0
2022-09-13T20:20:25.921Z,0
2022-09-13T20:50:27.930Z,0
2022-09-13T21:20:32.894Z,0
2022-09-13T21:50:35.129Z,1
2022-09-13T22:20:39.000Z,0.0
2022-09-13T22:50:45.026Z,0
2022-09-13T23:20:45.000Z,0.0
2022-09-13T23:50:47.031Z,0
